KUOX/UOX METAR and TAF weather

Enter ICAO airport designator
Station Type Date Time Source
KUOX METAR 2021/01/17 19:15 UTC NOAA

KUOX 171915Z AUTO 29016G22KT 10SM CLR 10/M06 A2992 RMK AO2 PWINO


Station Type Date Time Source
KUOX Decoded METAR 2021/01/17 19:15 UTC NOAA

Oxford, University-Oxford Airport, MS, United States (KUOX) 34-23-04N 089-32-08W
Jan 17, 2021 - 02:15 PM EST / 2021.01.17 1915 UTC
Wind: from the WNW (290 degrees) at 18 MPH (16 KT) gusting to 25 MPH (22 KT):0
Visibility: 10 mile(s):0
Sky conditions: clear
Temperature: 50 F (10 C)
Dew Point: 21 F (-6 C)
Relative Humidity: 31%
Pressure (altimeter): 29.92 in. Hg (1013 hPa)
ob: KUOX 171915Z AUTO 29016G22KT 10SM CLR 10/M06 A2992 RMK AO2 PWINO
cycle: 19

Station Type Date Time Source
KUOX TAF UTC NOAA

Error!

Example: see airport list